createdAt,value
2019-04-06T00:00:53.330Z,98647.52
2019-04-06T00:03:22.051Z,98650.16
2019-04-06T00:05:50.454Z,98654.73
2019-04-06T00:08:18.969Z,98643.27
2019-04-06T00:10:47.578Z,98640.49
2019-04-06T00:13:16.108Z,98635.94
2019-04-06T00:15:44.532Z,98639.71
2019-04-06T00:18:12.991Z,98635.45
2019-04-06T00:20:41.404Z,98638.73
2019-04-06T00:23:10.130Z,98631.88
2019-04-06T00:25:44.292Z,98632.38
2019-04-06T00:28:08.732Z,98632.08
2019-04-06T00:30:44.686Z,98630.94
2019-04-06T00:33:14.890Z,98633.55
2019-04-06T00:35:43.502Z,98628.80
2019-04-06T00:38:12.289Z,98623.73
2019-04-06T00:40:40.789Z,98626.84
2019-04-06T00:43:09.479Z,98620.00
2019-04-06T00:45:37.962Z,98515.71
2019-04-06T00:48:06.526Z,98615.25
2019-04-06T00:50:35.028Z,98613.12
2019-04-06T00:53:03.499Z,98612.95
2019-04-06T00:55:32.175Z,98609.22
2019-04-06T00:58:00.651Z,98608.09
2019-04-06T01:00:29.155Z,98611.20
2019-04-06T01:02:57.647Z,98618.74
2019-04-06T01:05:26.031Z,98619.22
2019-04-06T01:07:54.435Z,98618.56
2019-04-06T01:10:23.078Z,98615.16
2019-04-06T01:12:51.429Z,98614.98
2019-04-06T01:15:19.822Z,98625.93
2019-04-06T01:17:48.321Z,98615.63
2019-04-06T01:20:16.901Z,98612.52
2019-04-06T01:22:45.305Z,98617.75
2019-04-06T01:25:14.074Z,98617.27
2019-04-06T01:27:42.549Z,98616.94
2019-04-06T01:30:11.920Z,98615.94
2019-04-06T01:32:40.488Z,98622.50
2019-04-06T01:35:09.329Z,98619.56
2019-04-06T01:37:37.755Z,98618.58
2019-04-06T01:40:08.028Z,98616.43
2019-04-06T01:42:36.766Z,98616.43
2019-04-06T01:45:06.467Z,98609.59
2019-04-06T01:47:34.960Z,98615.64
2019-04-06T01:50:03.499Z,98613.34
2019-04-06T01:52:32.313Z,98611.05
2019-04-06T01:55:00.713Z,98608.91
2019-04-06T01:57:29.432Z,98612.83
2019-04-06T01:59:57.845Z,98608.58
2019-04-06T02:02:36.728Z,98604.83
2019-04-06T02:05:06.981Z,98601.86
2019-04-06T02:07:35.475Z,98602.34
2019-04-06T02:10:05.918Z,98600.08
2019-04-06T02:12:34.456Z,98599.93
2019-04-06T02:15:03.400Z,98601.70
2019-04-06T02:17:32.186Z,98601.70
2019-04-06T02:20:00.851Z,98594.67
2019-04-06T02:22:29.290Z,98597.61
2019-04-06T02:24:58.038Z,98595.64
2019-04-06T02:27:26.613Z,98598.89
2019-04-06T02:30:12.999Z,98597.59
2019-04-06T02:32:59.311Z,98599.56
2019-04-06T02:35:29.366Z,98601.16
2019-04-06T02:38:00.080Z,98604.70
2019-04-06T02:40:36.043Z,98609.06
2019-04-06T02:43:08.821Z,98609.38
2019-04-06T02:45:37.304Z,98609.75
2019-04-06T02:48:05.863Z,98606.78
2019-04-06T02:50:34.254Z,98611.98
2019-04-06T02:53:02.859Z,98618.01
2019-04-06T02:55:31.264Z,98613.42
2019-04-06T02:57:59.909Z,98610.66
2019-04-06T03:00:28.350Z,98614.39
2019-04-06T03:02:56.826Z,98618.31
2019-04-06T03:05:25.549Z,98615.73
2019-04-06T03:07:54.102Z,98615.09
2019-04-06T03:10:22.738Z,98611.35
2019-04-06T03:12:51.482Z,98618.34
2019-04-06T03:15:20.118Z,98612.94
2019-04-06T03:17:48.519Z,98609.02
2019-04-06T03:20:16.966Z,98613.42
2019-04-06T03:22:45.360Z,98605.61
2019-04-06T03:25:14.013Z,98606.77
2019-04-06T03:27:42.426Z,98603.64
2019-04-06T03:30:11.372Z,98600.36
2019-04-06T03:32:40.424Z,98608.97
2019-04-06T03:35:09.371Z,98605.72
2019-04-06T03:37:37.857Z,98606.89
2019-04-06T03:40:07.072Z,98600.13
2019-04-06T03:42:35.614Z,98605.84
2019-04-06T03:45:06.075Z,98604.53
2019-04-06T03:47:34.584Z,98607.63
2019-04-06T03:50:03.859Z,98600.92
2019-04-06T03:52:32.301Z,98603.16
2019-04-06T03:55:01.157Z,98607.50
2019-04-06T03:57:29.963Z,98599.48
2019-04-06T03:59:58.402Z,98607.95
2019-04-06T04:02:27.005Z,98607.95
2019-04-06T04:04:55.484Z,98608.43
2019-04-06T04:07:24.093Z,98608.58
2019-04-06T04:09:52.564Z,98606.12
2019-04-06T04:12:21.321Z,98609.33
2019-04-06T04:14:49.779Z,98602.50
2019-04-06T04:17:18.378Z,98604.92
2019-04-06T04:19:46.863Z,98605.07
2019-04-06T04:22:15.418Z,98610.59
2019-04-06T04:24:44.000Z,98606.97
2019-04-06T04:27:12.558Z,98612.67
2019-04-06T04:29:41.150Z,98609.23
2019-04-06T04:32:09.806Z,98613.14
2019-04-06T04:34:38.290Z,98607.93
2019-04-06T04:37:06.992Z,98610.34
2019-04-06T04:39:35.651Z,98620.59
2019-04-06T04:42:04.142Z,98622.09
2019-04-06T04:44:32.562Z,98615.42
2019-04-06T04:47:01.164Z,98611.18
2019-04-06T04:49:29.720Z,98613.97
2019-04-06T04:51:58.137Z,98620.07
2019-04-06T04:54:26.638Z,98620.50
2019-04-06T04:56:55.148Z,98621.66
2019-04-06T04:59:23.620Z,98626.58
2019-04-06T05:03:34.432Z,98631.74
2019-04-06T05:06:02.841Z,98631.81
2019-04-06T05:08:31.237Z,98638.81
2019-04-06T05:10:59.659Z,98641.42
2019-04-06T05:13:28.123Z,98648.42
2019-04-06T05:16:13.423Z,98654.02
2019-04-06T05:18:42.735Z,98651.80
2019-04-06T05:21:12.444Z,98652.06
2019-04-06T05:23:40.972Z,98654.42
2019-04-06T05:26:09.463Z,98652.20
2019-04-06T05:28:37.966Z,98652.84
2019-04-06T05:31:06.551Z,98651.23
2019-04-06T05:33:35.212Z,98660.86
2019-04-06T05:36:04.175Z,98665.18
2019-04-06T05:38:32.557Z,98671.25
2019-04-06T05:41:01.069Z,98662.66
2019-04-06T05:43:29.466Z,98663.50
2019-04-06T05:45:58.033Z,98666.11
2019-04-06T05:48:26.736Z,98671.90
2019-04-06T05:50:55.194Z,98669.52
2019-04-06T05:53:23.621Z,98666.58
2019-04-06T05:55:52.071Z,98677.58
2019-04-06T05:58:20.802Z,98678.23
2019-04-06T06:00:49.224Z,98673.20
2019-04-06T06:03:17.636Z,98670.59
2019-04-06T06:05:46.040Z,98676.48
2019-04-06T06:08:14.453Z,98672.06
2019-04-06T06:10:42.930Z,98668.80
2019-04-06T06:13:11.486Z,98681.70
2019-04-06T06:15:39.877Z,98678.25
2019-04-06T06:18:08.365Z,98673.13
2019-04-06T06:20:36.849Z,98675.02
2019-04-06T06:23:05.594Z,98680.00
2019-04-06T06:25:34.005Z,98681.58
2019-04-06T06:28:13.310Z,98675.04
2019-04-06T06:30:32.762Z,98672.77
2019-04-06T06:33:01.186Z,98680.88
2019-04-06T06:35:29.883Z,98683.59
2019-04-06T06:37:58.355Z,98676.70
2019-04-06T06:40:26.827Z,98677.75
2019-04-06T06:42:55.424Z,98677.34
2019-04-06T06:45:23.913Z,98678.06
2019-04-06T06:47:52.444Z,98671.84
2019-04-06T06:50:21.121Z,98666.25
2019-04-06T06:52:49.574Z,98673.17
2019-04-06T06:55:18.203Z,98672.94
2019-04-06T06:57:46.927Z,98629.22
2019-04-06T07:00:15.381Z,98670.41
2019-04-06T07:02:43.771Z,98667.67
2019-04-06T07:05:12.510Z,98670.20
2019-04-06T07:07:41.090Z,98663.69
2019-04-06T07:10:10.128Z,98668.33
2019-04-06T07:12:38.708Z,98673.10
2019-04-06T07:15:08.101Z,98660.17
2019-04-06T07:17:36.471Z,98658.39
2019-04-06T07:20:06.817Z,98669.13
2019-04-06T07:22:35.413Z,98660.77
2019-04-06T07:25:05.181Z,98662.74
2019-04-06T07:27:33.619Z,98656.51
2019-04-06T07:30:02.262Z,98656.84
2019-04-06T07:32:30.745Z,98661.55
2019-04-06T07:34:59.348Z,98656.65
2019-04-06T07:37:27.708Z,98658.74
2019-04-06T07:39:56.410Z,98657.86
2019-04-06T07:42:25.108Z,98658.82
2019-04-06T07:44:53.533Z,98655.77
2019-04-06T07:47:22.016Z,98653.82
2019-04-06T07:49:50.428Z,98650.89
2019-04-06T07:52:18.822Z,98654.84
2019-04-06T07:54:47.350Z,98650.95
2019-04-06T07:57:15.864Z,98655.05
2019-04-06T07:59:44.641Z,98655.05
2019-04-06T08:02:13.019Z,98652.05
2019-04-06T08:04:41.674Z,98646.53
2019-04-06T08:07:10.131Z,98645.14
2019-04-06T08:09:38.729Z,98645.14
2019-04-06T08:12:07.289Z,98644.47
2019-04-06T08:14:35.954Z,98639.52
2019-04-06T08:17:04.420Z,98638.84
2019-04-06T08:19:32.960Z,98637.44
2019-04-06T08:22:01.315Z,98634.06
2019-04-06T08:24:29.752Z,98635.89
2019-04-06T08:26:58.176Z,98597.13
2019-04-06T08:29:26.824Z,98631.81
2019-04-06T08:31:55.342Z,98589.42
2019-04-06T08:34:23.932Z,98628.00
2019-04-06T08:36:52.348Z,98627.31
2019-04-06T08:39:20.759Z,98630.60
2019-04-06T08:41:49.514Z,98625.16
2019-04-06T08:44:17.959Z,98624.67
2019-04-06T08:46:46.645Z,98621.33
2019-04-06T08:49:15.576Z,98622.33
2019-04-06T08:51:44.095Z,98621.22
2019-04-06T08:54:12.539Z,98613.78
2019-04-06T08:56:40.943Z,98620.11
2019-04-06T08:59:12.152Z,98575.94
2019-04-06T09:01:40.352Z,98608.83
2019-04-06T09:04:09.076Z,98600.82
2019-04-06T09:06:37.416Z,98600.75
2019-04-06T09:09:07.664Z,98602.60
2019-04-06T09:11:36.517Z,98603.38
2019-04-06T09:14:05.308Z,98600.15
2019-04-06T09:16:33.956Z,98596.01
2019-04-06T09:19:02.384Z,98592.27
2019-04-06T09:21:31.064Z,98562.87
2019-04-06T09:23:59.548Z,98585.50
2019-04-06T09:26:28.257Z,98587.02
2019-04-06T09:28:56.719Z,98586.59
2019-04-06T09:31:25.904Z,98575.89
2019-04-06T09:33:54.510Z,98575.89
2019-04-06T09:36:23.001Z,98562.47
2019-04-06T09:38:51.454Z,98565.55
2019-04-06T09:41:19.877Z,98558.97
2019-04-06T09:43:48.320Z,98563.52
2019-04-06T09:46:33.242Z,98560.04
2019-04-06T09:49:09.779Z,98562.43
2019-04-06T09:51:56.252Z,98553.48
2019-04-06T09:54:26.336Z,98541.77
2019-04-06T09:56:58.828Z,98552.70
2019-04-06T09:59:35.259Z,98561.03
2019-04-06T10:02:06.738Z,98560.02
2019-04-06T10:04:39.377Z,98547.92
2019-04-06T10:07:29.529Z,98552.24
2019-04-06T10:10:02.682Z,98549.58
2019-04-06T10:12:41.634Z,98544.64
2019-04-06T10:15:31.374Z,98530.92
2019-04-06T10:18:07.425Z,98540.50
2019-04-06T10:20:53.961Z,98534.38
2019-04-06T10:23:40.375Z,98529.66
2019-04-06T10:26:19.350Z,98522.75
2019-04-06T10:28:52.442Z,98529.57
2019-04-06T10:31:34.555Z,98527.95
2019-04-06T10:34:07.849Z,98519.47
2019-04-06T10:36:47.269Z,98509.12
2019-04-06T10:39:23.392Z,98508.95
2019-04-06T10:41:56.695Z,98501.30
2019-04-06T10:44:43.094Z,98499.59
2019-04-06T10:47:16.235Z,98498.56
2019-04-06T10:49:48.780Z,98500.88
2019-04-06T10:52:18.851Z,98492.33
2019-04-06T10:54:58.138Z,98488.98
2019-04-06T10:57:34.037Z,98494.27
2019-04-06T11:00:04.181Z,98485.58
2019-04-06T11:02:50.801Z,98486.81
2019-04-06T11:05:21.247Z,98484.94
2019-04-06T11:07:51.703Z,98492.73
2019-04-06T11:10:21.759Z,98490.59
2019-04-06T11:12:51.855Z,98492.25
2019-04-06T11:15:38.393Z,98481.88
2019-04-06T11:18:14.309Z,98475.72
2019-04-06T11:21:01.130Z,98465.09
2019-04-06T11:23:31.336Z,98455.81
2019-04-06T11:26:17.673Z,98447.62
2019-04-06T11:28:47.873Z,98441.52
2019-04-06T11:31:21.105Z,98435.59
2019-04-06T11:33:51.346Z,98427.73
2019-04-06T11:36:33.528Z,98426.09
2019-04-06T11:39:03.688Z,98423.39
2019-04-06T11:41:50.605Z,98424.91
2019-04-06T11:44:20.672Z,98424.61
2019-04-06T11:46:50.746Z,98420.88
2019-04-06T11:49:27.121Z,98426.84
2019-04-06T11:52:00.530Z,98428.29
2019-04-06T11:54:30.808Z,98426.44
2019-04-06T11:57:09.853Z,98432.16
2019-04-06T11:59:56.495Z,98446.13
2019-04-06T12:02:26.558Z,98438.83
2019-04-06T12:05:08.828Z,98450.00
2019-04-06T12:07:39.032Z,98449.28
2019-04-06T12:10:09.404Z,98453.60
2019-04-06T12:12:57.385Z,98444.22
2019-04-06T12:15:36.741Z,98459.60
2019-04-06T12:18:13.055Z,98452.61
2019-04-06T12:20:51.633Z,98457.93
2019-04-06T12:23:37.775Z,98447.22
2019-04-06T12:26:23.991Z,98451.48
2019-04-06T12:29:07.442Z,98454.45
2019-04-06T12:31:43.592Z,98448.77
2019-04-06T12:34:13.923Z,98451.02
2019-04-06T12:36:50.215Z,98455.47
2019-04-06T12:39:35.971Z,98453.23
2019-04-06T12:42:08.769Z,98457.55
2019-04-06T12:44:41.586Z,98454.06
2019-04-06T12:47:17.960Z,98452.25
2019-04-06T12:50:04.364Z,98457.07
2019-04-06T12:52:40.281Z,98450.28
2019-04-06T12:55:10.583Z,98448.80
2019-04-06T12:57:46.406Z,98453.61
2019-04-06T13:00:33.405Z,98441.58
2019-04-06T13:03:20.178Z,98451.61
2019-04-06T13:05:55.727Z,98448.16
2019-04-06T13:08:34.534Z,98448.95
2019-04-06T13:11:07.080Z,98444.99
2019-04-06T13:13:39.949Z,98439.59
2019-04-06T13:16:21.970Z,98451.64
2019-04-06T13:18:57.874Z,98456.44
2019-04-06T13:21:44.823Z,98451.64
2019-04-06T13:24:17.757Z,98445.05
2019-04-06T13:26:50.715Z,98441.85
2019-04-06T13:29:29.908Z,98430.11
2019-04-06T13:32:16.719Z,98421.84
2019-04-06T13:34:52.982Z,98414.47
2019-04-06T13:37:23.237Z,98419.90
2019-04-06T13:40:11.509Z,98412.65
2019-04-06T13:42:47.220Z,98411.71
2019-04-06T13:45:23.074Z,98409.23
2019-04-06T13:47:55.952Z,98411.98
2019-04-06T13:50:35.062Z,98405.25
2019-04-06T13:53:10.659Z,98354.58
2019-04-06T13:55:56.778Z,98367.73
2019-04-06T13:58:27.284Z,98397.52
2019-04-06T14:01:00.313Z,98396.23
2019-04-06T14:03:46.780Z,98388.34
2019-04-06T14:06:20.075Z,98393.63
2019-04-06T14:09:06.722Z,98382.08
2019-04-06T14:11:42.937Z,98375.84
2019-04-06T14:14:18.847Z,98372.92
2019-04-06T14:17:01.071Z,98366.75
2019-04-06T14:19:47.219Z,98365.23
2019-04-06T14:22:22.992Z,98360.75
2019-04-06T14:25:05.038Z,98361.11
2019-04-06T14:27:38.099Z,98350.19
2019-04-06T14:30:12.341Z,98350.88
2019-04-06T14:33:00.851Z,98308.79
2019-04-06T14:35:33.849Z,98354.99
2019-04-06T14:38:06.922Z,98325.53
2019-04-06T14:40:53.378Z,98355.72
2019-04-06T14:43:39.329Z,98349.50
2019-04-06T14:46:09.455Z,98343.39
2019-04-06T14:48:54.546Z,98343.27
2019-04-06T14:51:24.874Z,98341.24
2019-04-06T14:53:57.786Z,98339.19
2019-04-06T14:56:28.024Z,98342.06
2019-04-06T14:59:03.972Z,98337.97
2019-04-06T15:01:41.215Z,98343.80
2019-04-06T15:04:09.166Z,98337.38
2019-04-06T15:06:55.931Z,98333.66
2019-04-06T15:09:41.062Z,98335.70
2019-04-06T15:12:11.344Z,98331.98
2019-04-06T15:14:58.366Z,98331.70
2019-04-06T15:17:44.569Z,98331.51
2019-04-06T15:20:20.661Z,98327.69
2019-04-06T15:23:06.944Z,98326.86
2019-04-06T15:25:51.982Z,98286.06
2019-04-06T15:28:38.467Z,98325.34
2019-04-06T15:31:25.182Z,98327.04
2019-04-06T15:33:55.250Z,98319.96
2019-04-06T15:36:42.031Z,98318.94
2019-04-06T15:39:12.383Z,98315.11
2019-04-06T15:41:56.181Z,98315.81
2019-04-06T15:44:35.806Z,98316.22
2019-04-06T15:47:12.370Z,98321.81
2019-04-06T15:49:51.608Z,98325.16
2019-04-06T15:52:37.777Z,98317.29
2019-04-06T15:55:24.910Z,98308.59
2019-04-06T15:57:57.812Z,98313.36
2019-04-06T16:00:43.168Z,98307.00
2019-04-06T16:03:29.828Z,98304.95
2019-04-06T16:06:02.574Z,98308.49
2019-04-06T16:08:41.229Z,98306.34
2019-04-06T16:11:17.027Z,98301.88
2019-04-06T16:13:55.877Z,98304.89
2019-04-06T16:16:42.191Z,98296.03
2019-04-06T16:19:21.338Z,98258.01
2019-04-06T16:21:54.587Z,98295.76
2019-04-06T16:24:41.619Z,98296.84
2019-04-06T16:27:14.463Z,98297.16
2019-04-06T16:29:53.557Z,98299.63
2019-04-06T16:32:32.875Z,98306.67
2019-04-06T16:34:58.521Z,98308.52
2019-04-06T16:37:37.422Z,98309.32
2019-04-06T16:40:18.105Z,98310.98
2019-04-06T16:42:48.261Z,98301.86
2019-04-06T16:45:27.131Z,98300.25
2019-04-06T16:48:09.312Z,98307.79
2019-04-06T16:50:39.863Z,98309.66
2019-04-06T16:53:12.704Z,98305.91
2019-04-06T16:55:45.798Z,98309.91
2019-04-06T16:58:32.896Z,98305.88
2019-04-06T17:01:03.152Z,98306.95
2019-04-06T17:03:50.051Z,98310.70
2019-04-06T17:06:29.083Z,98299.11
2019-04-06T17:09:07.686Z,98308.99
2019-04-06T17:11:47.045Z,98310.56
2019-04-06T17:14:23.208Z,98307.08
2019-04-06T17:17:09.263Z,98303.59
2019-04-06T17:19:45.301Z,98304.88
2019-04-06T17:22:18.179Z,98309.94
2019-04-06T17:25:04.385Z,98307.23
2019-04-06T17:27:40.096Z,98313.08
2019-04-06T17:30:22.409Z,98311.62
2019-04-06T17:32:55.919Z,98308.67
2019-04-06T17:35:35.674Z,98309.64
2019-04-06T17:38:08.976Z,98316.27
2019-04-06T17:40:45.099Z,98313.98
2019-04-06T17:43:18.492Z,98317.42
2019-04-06T17:46:00.576Z,98321.63
2019-04-06T17:48:33.375Z,98316.87
2019-04-06T17:51:12.761Z,98314.64
2019-04-06T17:53:52.072Z,98321.44
2019-04-06T17:56:25.008Z,98325.00
2019-04-06T17:59:01.044Z,98317.27
2019-04-06T18:01:43.099Z,98319.72
2019-04-06T18:04:15.646Z,98328.17
2019-04-06T18:06:52.321Z,98328.52
2019-04-06T18:09:25.011Z,98325.97
2019-04-06T18:11:55.241Z,98326.75
2019-04-06T18:14:24.039Z,98326.01
2019-04-06T18:16:52.789Z,98329.05
2019-04-06T18:19:21.554Z,98324.14
2019-04-06T18:21:50.168Z,98326.66
2019-04-06T18:24:19.476Z,98330.02
2019-04-06T18:26:47.945Z,98328.58
2019-04-06T18:29:16.435Z,98338.73
2019-04-06T18:31:52.624Z,98334.30
2019-04-06T18:34:21.665Z,98331.17
2019-04-06T18:36:51.948Z,98337.80
2019-04-06T18:39:22.376Z,98341.98
2019-04-06T18:41:50.924Z,98340.45
2019-04-06T18:44:19.433Z,98346.30
2019-04-06T18:46:47.852Z,98349.14
2019-04-06T18:49:18.155Z,98349.81
2019-04-06T18:51:46.753Z,98345.24
2019-04-06T18:54:15.506Z,98359.52
2019-04-06T18:56:43.995Z,98358.13
2019-04-06T18:59:12.962Z,98357.98
2019-04-06T19:01:41.474Z,98361.99
2019-04-06T19:04:10.478Z,98371.17
2019-04-06T19:06:39.549Z,98364.24
2019-04-06T19:09:20.750Z,98369.47
2019-04-06T19:11:39.241Z,98369.98
2019-04-06T19:14:07.906Z,98375.39
2019-04-06T19:16:36.675Z,98376.27
2019-04-06T19:19:05.688Z,98370.95
2019-04-06T19:21:34.578Z,98372.51
2019-04-06T19:24:03.183Z,98374.36
2019-04-06T19:26:32.209Z,98376.36
2019-04-06T19:29:00.921Z,98383.36
2019-04-06T19:31:30.072Z,98381.36
2019-04-06T19:33:58.852Z,98379.58
2019-04-06T19:36:27.465Z,98388.28
2019-04-06T19:38:56.279Z,98386.95
2019-04-06T19:41:24.909Z,98389.64
2019-04-06T19:43:53.370Z,98386.89
2019-04-06T19:46:21.996Z,98391.40
2019-04-06T19:48:50.596Z,98385.56
2019-04-06T19:51:19.158Z,98390.86
2019-04-06T19:53:48.270Z,98386.28
2019-04-06T19:56:16.768Z,98385.11
2019-04-06T19:58:45.185Z,98386.22
2019-04-06T20:03:38.019Z,98388.06
2019-04-06T20:06:05.845Z,98384.84
2019-04-06T20:08:34.476Z,98378.91
2019-04-06T20:11:03.587Z,98380.39
2019-04-06T20:13:32.199Z,98381.84
2019-04-06T20:16:00.846Z,98377.21
2019-04-06T20:18:29.438Z,98382.12
2019-04-06T20:20:57.855Z,98379.44
2019-04-06T20:23:27.019Z,98376.94
2019-04-06T20:25:55.629Z,98382.70
2019-04-06T20:28:24.648Z,98378.78
2019-04-06T20:30:53.277Z,98377.83
2019-04-06T20:33:21.694Z,98377.87
2019-04-06T20:35:50.213Z,98379.20
2019-04-06T20:38:18.809Z,98377.13
2019-04-06T20:40:47.267Z,98372.63
2019-04-06T20:43:15.769Z,98375.44
2019-04-06T20:45:44.367Z,98372.27
2019-04-06T20:48:12.995Z,98369.91
2019-04-06T20:50:41.475Z,98369.54
2019-04-06T20:53:09.974Z,98368.58
2019-04-06T20:55:38.743Z,98370.57
2019-04-06T20:58:07.391Z,98368.31
2019-04-06T21:00:36.258Z,98373.41
2019-04-06T21:03:05.199Z,98372.32
2019-04-06T21:05:33.757Z,98376.03
2019-04-06T21:08:02.819Z,98379.41
2019-04-06T21:10:31.612Z,98379.86
2019-04-06T21:13:00.040Z,98377.15
2019-04-06T21:15:28.493Z,98378.05
2019-04-06T21:17:57.225Z,98375.45
2019-04-06T21:20:25.720Z,98386.95
2019-04-06T21:22:54.483Z,98384.27
2019-04-06T21:25:23.377Z,98378.75
2019-04-06T21:27:52.357Z,98379.48
2019-04-06T21:30:21.383Z,98372.98
2019-04-06T21:32:49.961Z,98371.91
2019-04-06T21:35:18.881Z,98369.17
2019-04-06T21:37:47.283Z,98367.75
2019-04-06T21:40:15.976Z,98373.02
2019-04-06T21:42:45.861Z,98370.81
2019-04-06T21:45:15.212Z,98370.95
2019-04-06T21:47:44.222Z,98371.14
2019-04-06T21:50:13.656Z,98370.78
2019-04-06T21:52:42.093Z,98370.09
2019-04-06T21:55:13.730Z,98374.77
2019-04-06T21:57:43.144Z,98374.16
2019-04-06T22:00:15.282Z,98377.83
2019-04-06T22:02:43.868Z,98371.27
2019-04-06T22:05:12.416Z,98380.39
2019-04-06T22:07:48.653Z,98385.92
2019-04-06T22:10:11.869Z,98380.14
2019-04-06T22:12:40.301Z,98382.48
2019-04-06T22:15:10.002Z,98378.94
2019-04-06T22:17:38.474Z,98382.58
2019-04-06T22:20:07.407Z,98385.55
2019-04-06T22:22:35.837Z,98377.36
2019-04-06T22:25:05.767Z,98389.69
2019-04-06T22:27:34.639Z,98384.75
2019-04-06T22:30:05.869Z,98384.98
2019-04-06T22:32:34.304Z,98381.01
2019-04-06T22:35:03.454Z,98380.50
2019-04-06T22:37:32.540Z,98373.52
2019-04-06T22:40:02.272Z,98373.52
2019-04-06T22:42:30.774Z,98379.58
2019-04-06T22:44:59.196Z,98379.16
2019-04-06T22:47:27.671Z,98381.22
2019-04-06T22:49:56.143Z,98388.06
2019-04-06T22:52:25.094Z,98383.91
2019-04-06T22:54:54.239Z,98381.07
2019-04-06T22:57:22.760Z,98386.76
2019-04-06T22:59:51.399Z,98388.18
2019-04-06T23:02:20.382Z,98376.16
2019-04-06T23:04:51.306Z,98372.31
2019-04-06T23:07:21.738Z,98373.08
2019-04-06T23:09:50.283Z,98373.08
2019-04-06T23:12:18.688Z,98375.47
2019-04-06T23:14:47.703Z,98384.02
2019-04-06T23:17:16.169Z,98382.03
2019-04-06T23:19:45.350Z,98383.66
2019-04-06T23:22:14.237Z,98382.70
2019-04-06T23:24:43.117Z,98380.20
2019-04-06T23:27:11.557Z,98380.92
2019-04-06T23:29:40.044Z,98377.56
2019-04-06T23:32:08.965Z,98385.18
2019-04-06T23:34:37.418Z,98376.23
2019-04-06T23:37:06.214Z,98379.89
2019-04-06T23:39:34.670Z,98381.00
2019-04-06T23:42:03.529Z,98379.59
2019-04-06T23:44:31.928Z,98371.77
2019-04-06T23:47:00.475Z,98364.89
2019-04-06T23:49:29.142Z,98364.89
2019-04-06T23:51:57.790Z,98369.27
2019-04-06T23:54:26.377Z,98374.16
2019-04-06T23:56:54.852Z,98370.44
2019-04-06T23:59:23.417Z,98366.62
